sensor_id;sensor_type;location;lat;lon;timestamp;pressure;altitude;pressure_sealevel;temperature;humidity
69855;BME280;57146;48.140;16.304;2023-08-20T00:01:22;99695.00;;;21.48;79.10
69855;BME280;57146;48.140;16.304;2023-08-20T00:03:52;99698.91;;;21.55;79.03
69855;BME280;57146;48.140;16.304;2023-08-20T00:06:22;99702.06;;;21.60;78.97
69855;BME280;57146;48.140;16.304;2023-08-20T00:08:49;99703.97;;;21.60;78.59
69855;BME280;57146;48.140;16.304;2023-08-20T00:11:16;99703.94;;;21.56;78.73
69855;BME280;57146;48.140;16.304;2023-08-20T00:13:43;99699.59;;;21.48;78.93
69855;BME280;57146;48.140;16.304;2023-08-20T00:16:11;99695.69;;;21.42;79.24
69855;BME280;57146;48.140;16.304;2023-08-20T00:18:42;99689.56;;;21.41;79.26
69855;BME280;57146;48.140;16.304;2023-08-20T00:21:09;99688.00;;;21.40;79.27
69855;BME280;57146;48.140;16.304;2023-08-20T00:23:37;99702.94;;;21.41;79.46
69855;BME280;57146;48.140;16.304;2023-08-20T00:26:04;99698.19;;;21.31;79.91
69855;BME280;57146;48.140;16.304;2023-08-20T00:28:33;99693.09;;;21.22;80.12
69855;BME280;57146;48.140;16.304;2023-08-20T00:31:00;99699.94;;;21.20;80.72
69855;BME280;57146;48.140;16.304;2023-08-20T00:33:32;99695.75;;;21.22;80.85
69855;BME280;57146;48.140;16.304;2023-08-20T00:35:59;99696.53;;;21.23;80.86
69855;BME280;57146;48.140;16.304;2023-08-20T00:38:26;99691.66;;;21.28;80.61
69855;BME280;57146;48.140;16.304;2023-08-20T00:40:55;99703.03;;;21.22;80.55
69855;BME280;57146;48.140;16.304;2023-08-20T00:43:22;99706.06;;;21.20;80.89
69855;BME280;57146;48.140;16.304;2023-08-20T00:45:50;99704.34;;;21.09;81.34
69855;BME280;57146;48.140;16.304;2023-08-20T00:48:18;99709.72;;;21.09;81.34
69855;BME280;57146;48.140;16.304;2023-08-20T00:50:47;99704.34;;;21.09;81.41
69855;BME280;57146;48.140;16.304;2023-08-20T00:53:14;99703.19;;;21.06;81.54
69855;BME280;57146;48.140;16.304;2023-08-20T00:55:45;99708.16;;;21.08;81.60
69855;BME280;57146;48.140;16.304;2023-08-20T00:58:13;99709.25;;;21.03;81.72
69855;BME280;57146;48.140;16.304;2023-08-20T01:00:41;99706.88;;;20.98;81.80
69855;BME280;57146;48.140;16.304;2023-08-20T01:03:09;99705.97;;;20.90;82.21
69855;BME280;57146;48.140;16.304;2023-08-20T01:06:23;99707.72;;;20.79;82.56
69855;BME280;57146;48.140;16.304;2023-08-20T01:09:12;99709.38;;;20.87;82.29
69855;BME280;57146;48.140;16.304;2023-08-20T01:11:49;99708.66;;;20.90;82.32
69855;BME280;57146;48.140;16.304;2023-08-20T01:14:18;99709.31;;;20.84;82.27
69855;BME280;57146;48.140;16.304;2023-08-20T01:16:46;99709.50;;;20.71;82.58
69855;BME280;57146;48.140;16.304;2023-08-20T01:19:17;99717.81;;;20.66;82.84
69855;BME280;57146;48.140;16.304;2023-08-20T01:30:07;99728.03;;;20.61;84.28
69855;BME280;57146;48.140;16.304;2023-08-20T01:32:36;99722.00;;;20.64;84.04
69855;BME280;57146;48.140;16.304;2023-08-20T01:35:05;99723.53;;;20.65;83.97
69855;BME280;57146;48.140;16.304;2023-08-20T01:37:32;99725.78;;;20.63;84.09
69855;BME280;57146;48.140;16.304;2023-08-20T01:40:00;99723.09;;;20.63;84.09
69855;BME280;57146;48.140;16.304;2023-08-20T01:42:27;99720.47;;;20.66;84.09
69855;BME280;57146;48.140;16.304;2023-08-20T01:44:54;99728.16;;;20.68;84.08
69855;BME280;57146;48.140;16.304;2023-08-20T01:47:22;99725.84;;;20.66;84.06
69855;BME280;57146;48.140;16.304;2023-08-20T01:49:51;99718.94;;;20.65;84.21
69855;BME280;57146;48.140;16.304;2023-08-20T01:52:18;99721.94;;;20.60;84.22
69855;BME280;57146;48.140;16.304;2023-08-20T01:54:48;99719.25;;;20.60;84.20
69855;BME280;57146;48.140;16.304;2023-08-20T01:57:19;99728.81;;;20.61;84.07
69855;BME280;57146;48.140;16.304;2023-08-20T01:59:47;99728.81;;;20.61;84.41
69855;BME280;57146;48.140;16.304;2023-08-20T02:02:14;99726.06;;;20.58;84.39
69855;BME280;57146;48.140;16.304;2023-08-20T02:04:41;99733.59;;;20.52;84.94
69855;BME280;57146;48.140;16.304;2023-08-20T02:07:09;99731.41;;;20.38;85.56
69855;BME280;57146;48.140;16.304;2023-08-20T02:09:36;99726.72;;;20.31;86.15
69855;BME280;57146;48.140;16.304;2023-08-20T02:12:06;99726.81;;;20.35;85.87
69855;BME280;57146;48.140;16.304;2023-08-20T02:14:34;99723.56;;;20.26;86.27
69855;BME280;57146;48.140;16.304;2023-08-20T02:17:03;99733.06;;;20.23;86.55
69855;BME280;57146;48.140;16.304;2023-08-20T02:19:30;99724.13;;;20.16;86.96
69855;BME280;57146;48.140;16.304;2023-08-20T02:22:01;99732.56;;;20.18;87.20
69855;BME280;57146;48.140;16.304;2023-08-20T02:24:28;99731.75;;;20.14;86.97
69855;BME280;57146;48.140;16.304;2023-08-20T02:26:58;99729.47;;;20.16;87.42
69855;BME280;57146;48.140;16.304;2023-08-20T02:29:25;99727.94;;;20.15;87.49
69855;BME280;57146;48.140;16.304;2023-08-20T02:32:16;99720.63;;;20.12;87.52
69855;BME280;57146;48.140;16.304;2023-08-20T02:34:43;99722.38;;;20.04;87.38
69855;BME280;57146;48.140;16.304;2023-08-20T02:37:11;99716.59;;;20.02;87.86
69855;BME280;57146;48.140;16.304;2023-08-20T02:39:39;99722.38;;;20.04;87.58
69855;BME280;57146;48.140;16.304;2023-08-20T02:42:07;99719.63;;;20.00;87.73
69855;BME280;57146;48.140;16.304;2023-08-20T02:44:34;99722.94;;;19.94;87.91
69855;BME280;57146;48.140;16.304;2023-08-20T02:47:01;99717.09;;;19.88;88.24
69855;BME280;57146;48.140;16.304;2023-08-20T02:49:28;99715.63;;;19.91;88.35
69855;BME280;57146;48.140;16.304;2023-08-20T02:51:57;99720.69;;;19.96;88.14
69855;BME280;57146;48.140;16.304;2023-08-20T02:54:24;99726.81;;;19.96;87.68
69855;BME280;57146;48.140;16.304;2023-08-20T02:56:52;99728.97;;;19.91;88.24
69855;BME280;57146;48.140;16.304;2023-08-20T02:59:19;99734.75;;;19.93;87.97
69855;BME280;57146;48.140;16.304;2023-08-20T03:01:50;99727.50;;;19.93;87.99
69855;BME280;57146;48.140;16.304;2023-08-20T03:04:17;99730.88;;;19.90;87.45
69855;BME280;57146;48.140;16.304;2023-08-20T03:06:45;99736.84;;;19.83;87.79
69855;BME280;57146;48.140;16.304;2023-08-20T03:09:12;99736.91;;;19.87;87.86
69855;BME280;57146;48.140;16.304;2023-08-20T03:11:39;99731.88;;;19.82;88.07
69855;BME280;57146;48.140;16.304;2023-08-20T03:14:08;99734.09;;;19.80;88.12
69855;BME280;57146;48.140;16.304;2023-08-20T03:16:36;99740.66;;;19.82;87.99
69855;BME280;57146;48.140;16.304;2023-08-20T03:19:04;99738.75;;;19.83;88.07
69855;BME280;57146;48.140;16.304;2023-08-20T03:21:31;99734.53;;;19.82;88.31
69855;BME280;57146;48.140;16.304;2023-08-20T03:23:59;99735.72;;;19.84;88.07
69855;BME280;57146;48.140;16.304;2023-08-20T03:26:26;99736.41;;;19.81;88.24
69855;BME280;57146;48.140;16.304;2023-08-20T03:28:54;99738.66;;;19.79;87.99
69855;BME280;57146;48.140;16.304;2023-08-20T03:31:21;99731.78;;;19.78;88.24
69855;BME280;57146;48.140;16.304;2023-08-20T03:33:49;99724.88;;;19.77;88.51
69855;BME280;57146;48.140;16.304;2023-08-20T03:36:42;99723.34;;;19.76;88.62
69855;BME280;57146;48.140;16.304;2023-08-20T03:39:11;99730.50;;;19.72;88.51
69855;BME280;57146;48.140;16.304;2023-08-20T03:41:37;99731.97;;;19.70;88.61
69855;BME280;57146;48.140;16.304;2023-08-20T03:44:05;99735.34;;;19.67;88.99
69855;BME280;57146;48.140;16.304;2023-08-20T03:46:32;99738.69;;;19.64;88.85
69855;BME280;57146;48.140;16.304;2023-08-20T03:49:00;99746.53;;;19.72;88.55
69855;BME280;57146;48.140;16.304;2023-08-20T03:51:27;99743.16;;;19.75;87.96
69855;BME280;57146;48.140;16.304;2023-08-20T03:53:56;99749.63;;;19.74;87.87
69855;BME280;57146;48.140;16.304;2023-08-20T03:56:24;99749.19;;;19.72;87.82
69855;BME280;57146;48.140;16.304;2023-08-20T03:58:51;99746.44;;;19.69;87.79
69855;BME280;57146;48.140;16.304;2023-08-20T04:01:19;99749.13;;;19.69;88.10
69855;BME280;57146;48.140;16.304;2023-08-20T04:03:47;99749.47;;;19.67;87.89
69855;BME280;57146;48.140;16.304;2023-08-20T04:06:15;99748.63;;;19.63;88.18
69855;BME280;57146;48.140;16.304;2023-08-20T04:08:42;99756.63;;;19.63;88.13
69855;BME280;57146;48.140;16.304;2023-08-20T04:11:10;99752.06;;;19.64;88.30
69855;BME280;57146;48.140;16.304;2023-08-20T04:13:39;99752.50;;;19.66;88.04
69855;BME280;57146;48.140;16.304;2023-08-20T04:16:06;99750.19;;;19.64;88.27
69855;BME280;57146;48.140;16.304;2023-08-20T04:18:33;99753.63;;;19.65;87.93
69855;BME280;57146;48.140;16.304;2023-08-20T04:21:00;99744.56;;;19.69;88.10
69855;BME280;57146;48.140;16.304;2023-08-20T04:23:27;99752.22;;;19.71;88.14
69855;BME280;57146;48.140;16.304;2023-08-20T04:25:54;99752.66;;;19.73;88.19
69855;BME280;57146;48.140;16.304;2023-08-20T04:28:25;99752.72;;;19.76;87.86
69855;BME280;57146;48.140;16.304;2023-08-20T04:30:53;99750.13;;;19.80;87.70
69855;BME280;57146;48.140;16.304;2023-08-20T04:33:22;99765.97;;;19.89;87.31
69855;BME280;57146;48.140;16.304;2023-08-20T04:35:51;99764.06;;;19.89;87.48
69855;BME280;57146;48.140;16.304;2023-08-20T04:38:18;99772.16;;;19.93;87.61
69855;BME280;57146;48.140;16.304;2023-08-20T04:40:46;99764.06;;;19.89;87.79
69855;BME280;57146;48.140;16.304;2023-08-20T04:43:14;99771.03;;;19.94;87.92
69855;BME280;57146;48.140;16.304;2023-08-20T04:45:42;99769.56;;;19.96;88.01
69855;BME280;57146;48.140;16.304;2023-08-20T04:48:09;99773.41;;;19.99;87.80
69855;BME280;57146;48.140;16.304;2023-08-20T04:50:36;99776.16;;;20.02;88.00
69855;BME280;57146;48.140;16.304;2023-08-20T04:53:04;99788.13;;;20.08;87.38
69855;BME280;57146;48.140;16.304;2023-08-20T04:55:32;99782.09;;;20.12;87.73
69855;BME280;57146;48.140;16.304;2023-08-20T04:57:59;99782.50;;;20.14;87.28
69855;BME280;57146;48.140;16.304;2023-08-20T05:00:26;99780.31;;;20.19;87.07
69855;BME280;57146;48.140;16.304;2023-08-20T05:03:04;99788.06;;;20.24;87.08
69855;BME280;57146;48.140;16.304;2023-08-20T05:05:33;99786.25;;;20.28;87.34
69855;BME280;57146;48.140;16.304;2023-08-20T05:08:01;99782.50;;;20.33;87.18
69855;BME280;57146;48.140;16.304;2023-08-20T05:10:53;99783.00;;;20.39;87.05
69855;BME280;57146;48.140;16.304;2023-08-20T05:13:23;99792.63;;;20.43;87.02
69855;BME280;57146;48.140;16.304;2023-08-20T05:15:50;99788.13;;;20.47;86.54
69855;BME280;57146;48.140;16.304;2023-08-20T05:18:19;99786.75;;;20.53;86.87
69855;BME280;57146;48.140;16.304;2023-08-20T05:20:47;99802.16;;;20.60;86.59
69855;BME280;57146;48.140;16.304;2023-08-20T05:23:16;99800.72;;;20.66;86.15
69855;BME280;57146;48.140;16.304;2023-08-20T05:25:43;99792.84;;;20.73;85.63
69855;BME280;57146;48.140;16.304;2023-08-20T05:28:12;99794.88;;;20.80;85.15
69855;BME280;57146;48.140;16.304;2023-08-20T05:31:05;99806.53;;;20.91;84.97
69855;BME280;57146;48.140;16.304;2023-08-20T05:33:32;99809.75;;;21.00;84.37
69855;BME280;57146;48.140;16.304;2023-08-20T05:36:03;99819.44;;;21.09;84.65
69855;BME280;57146;48.140;16.304;2023-08-20T05:38:30;99825.34;;;21.18;83.62
69855;BME280;57146;48.140;16.304;2023-08-20T05:40:57;99823.63;;;21.29;83.57
69855;BME280;57146;48.140;16.304;2023-08-20T05:43:24;99819.72;;;21.46;82.07
69855;BME280;57146;48.140;16.304;2023-08-20T05:45:51;99817.34;;;21.67;81.44
69855;BME280;57146;48.140;16.304;2023-08-20T05:48:43;99823.06;;;21.92;80.22
69855;BME280;57146;48.140;16.304;2023-08-20T05:51:10;99824.97;;;22.18;78.61
69855;BME280;57146;48.140;16.304;2023-08-20T05:53:38;99828.66;;;22.40;77.32
69855;BME280;57146;48.140;16.304;2023-08-20T05:56:05;99823.34;;;22.44;77.29
69855;BME280;57146;48.140;16.304;2023-08-20T05:58:33;99818.41;;;22.46;76.46
69855;BME280;57146;48.140;16.304;2023-08-20T06:00:59;99820.34;;;22.49;76.55
69855;BME280;57146;48.140;16.304;2023-08-20T06:03:28;99826.91;;;22.55;76.59
69855;BME280;57146;48.140;16.304;2023-08-20T06:05:57;99821.63;;;22.62;74.87
69855;BME280;57146;48.140;16.304;2023-08-20T06:08:29;99820.16;;;22.68;74.59
69855;BME280;57146;48.140;16.304;2023-08-20T06:10:56;99828.28;;;22.76;74.05
69855;BME280;57146;48.140;16.304;2023-08-20T06:13:24;99829.13;;;22.83;73.47
69855;BME280;57146;48.140;16.304;2023-08-20T06:15:51;99822.34;;;22.93;74.04
69855;BME280;57146;48.140;16.304;2023-08-20T06:18:18;99818.25;;;23.03;73.58
69855;BME280;57146;48.140;16.304;2023-08-20T06:20:45;99816.41;;;23.14;73.38
69855;BME280;57146;48.140;16.304;2023-08-20T06:23:12;99830.69;;;23.25;72.89
69855;BME280;57146;48.140;16.304;2023-08-20T06:25:56;99820.03;;;23.36;72.63
69855;BME280;57146;48.140;16.304;2023-08-20T06:28:47;99826.66;;;23.49;72.19
69855;BME280;57146;48.140;16.304;2023-08-20T06:31:18;99825.56;;;23.57;70.74
69855;BME280;57146;48.140;16.304;2023-08-20T06:33:47;99821.41;;;23.63;70.28
69855;BME280;57146;48.140;16.304;2023-08-20T06:36:14;99818.41;;;23.72;69.32
69855;BME280;57146;48.140;16.304;2023-08-20T06:38:43;99818.47;;;23.86;69.70
69855;BME280;57146;48.140;16.304;2023-08-20T06:41:11;99816.63;;;24.01;70.44
69855;BME280;57146;48.140;16.304;2023-08-20T06:43:49;99810.19;;;24.17;68.66
69855;BME280;57146;48.140;16.304;2023-08-20T06:46:19;99808.72;;;24.30;68.71
69855;BME280;57146;48.140;16.304;2023-08-20T06:48:47;99808.75;;;24.37;67.26
69855;BME280;57146;48.140;16.304;2023-08-20T06:51:18;99810.34;;;24.52;68.18
69855;BME280;57146;48.140;16.304;2023-08-20T06:53:51;99813.06;;;24.67;66.74
69855;BME280;57146;48.140;16.304;2023-08-20T06:56:24;99804.25;;;24.84;66.49
69855;BME280;57146;48.140;16.304;2023-08-20T06:58:51;99816.19;;;25.01;66.00
69855;BME280;57146;48.140;16.304;2023-08-20T07:01:19;99807.00;;;25.13;65.67
69855;BME280;57146;48.140;16.304;2023-08-20T07:03:50;99815.44;;;25.25;65.98
69855;BME280;57146;48.140;16.304;2023-08-20T07:06:17;99816.59;;;25.35;64.91
69855;BME280;57146;48.140;16.304;2023-08-20T07:08:46;99810.84;;;25.47;64.84
69855;BME280;57146;48.140;16.304;2023-08-20T07:11:13;99815.81;;;25.52;62.69
69855;BME280;57146;48.140;16.304;2023-08-20T07:13:42;99815.03;;;25.66;64.31
69855;BME280;57146;48.140;16.304;2023-08-20T07:16:09;99822.34;;;25.84;63.99
69855;BME280;57146;48.140;16.304;2023-08-20T07:18:36;99814.56;;;26.00;63.59
69855;BME280;57146;48.140;16.304;2023-08-20T07:21:03;99819.53;;;26.16;62.60
69855;BME280;57146;48.140;16.304;2023-08-20T07:23:30;99820.66;;;26.29;62.19
69855;BME280;57146;48.140;16.304;2023-08-20T07:26:21;99818.25;;;26.45;62.62
69855;BME280;57146;48.140;16.304;2023-08-20T07:28:52;99826.31;;;26.56;61.88
69855;BME280;57146;48.140;16.304;2023-08-20T07:31:20;99824.31;;;26.71;60.77
69855;BME280;57146;48.140;16.304;2023-08-20T07:33:48;99829.59;;;26.85;59.65
69855;BME280;57146;48.140;16.304;2023-08-20T07:36:16;99829.91;;;26.98;60.32
69855;BME280;57146;48.140;16.304;2023-08-20T07:38:43;99824.47;;;27.05;57.47
69855;BME280;57146;48.140;16.304;2023-08-20T07:41:11;99826.34;;;27.15;58.40
69855;BME280;57146;48.140;16.304;2023-08-20T07:43:39;99829.75;;;27.23;58.80
69855;BME280;57146;48.140;16.304;2023-08-20T07:46:07;99843.53;;;27.39;58.90
69855;BME280;57146;48.140;16.304;2023-08-20T07:48:35;99834.94;;;27.48;59.09
69855;BME280;57146;48.140;16.304;2023-08-20T07:51:02;99835.59;;;27.59;57.92
69855;BME280;57146;48.140;16.304;2023-08-20T07:53:33;99833.94;;;27.73;56.74
69855;BME280;57146;48.140;16.304;2023-08-20T07:56:00;99827.63;;;27.86;56.28
69855;BME280;57146;48.140;16.304;2023-08-20T07:58:27;99827.53;;;27.97;56.52
69855;BME280;57146;48.140;16.304;2023-08-20T08:00:56;99835.88;;;28.10;57.13
69855;BME280;57146;48.140;16.304;2023-08-20T08:03:25;99841.72;;;28.05;54.76
69855;BME280;57146;48.140;16.304;2023-08-20T08:05:52;99837.38;;;28.14;54.90
69855;BME280;57146;48.140;16.304;2023-08-20T08:08:19;99838.41;;;28.24;54.97
69855;BME280;57146;48.140;16.304;2023-08-20T08:10:47;99835.25;;;28.29;54.94
69855;BME280;57146;48.140;16.304;2023-08-20T08:13:21;99836.69;;;28.37;54.69
69855;BME280;57146;48.140;16.304;2023-08-20T08:15:50;99834.63;;;28.49;54.48
69855;BME280;57146;48.140;16.304;2023-08-20T08:18:18;99828.41;;;28.52;54.54
69855;BME280;57146;48.140;16.304;2023-08-20T08:20:45;99828.53;;;28.72;54.54
69855;BME280;57146;48.140;16.304;2023-08-20T08:23:13;99835.69;;;28.85;53.07
69855;BME280;57146;48.140;16.304;2023-08-20T08:25:40;99835.22;;;28.91;52.64
69855;BME280;57146;48.140;16.304;2023-08-20T08:28:07;99833.84;;;29.06;53.30
69855;BME280;57146;48.140;16.304;2023-08-20T08:30:34;99830.59;;;29.15;53.01
69855;BME280;57146;48.140;16.304;2023-08-20T08:33:01;99830.06;;;29.23;53.10
69855;BME280;57146;48.140;16.304;2023-08-20T08:35:28;99829.19;;;29.30;51.91
69855;BME280;57146;48.140;16.304;2023-08-20T08:37:55;99833.66;;;29.40;52.38
69855;BME280;57146;48.140;16.304;2023-08-20T08:40:23;99832.78;;;29.47;50.73
69855;BME280;57146;48.140;16.304;2023-08-20T08:42:53;99837.25;;;29.33;50.39
69855;BME280;57146;48.140;16.304;2023-08-20T08:45:21;99837.38;;;29.26;51.34
69855;BME280;57146;48.140;16.304;2023-08-20T08:47:49;99840.06;;;29.03;50.65
69855;BME280;57146;48.140;16.304;2023-08-20T08:50:16;99833.94;;;28.99;51.49
69855;BME280;57146;48.140;16.304;2023-08-20T08:52:45;99838.91;;;29.04;51.87
69855;BME280;57146;48.140;16.304;2023-08-20T08:55:13;99850.78;;;29.10;51.06
69855;BME280;57146;48.140;16.304;2023-08-20T08:57:40;99841.97;;;29.06;51.17
69855;BME280;57146;48.140;16.304;2023-08-20T09:00:07;99849.38;;;29.02;50.99
69855;BME280;57146;48.140;16.304;2023-08-20T09:02:35;99845.16;;;29.24;51.21
69855;BME280;57146;48.140;16.304;2023-08-20T09:05:01;99848.03;;;29.37;50.32
69855;BME280;57146;48.140;16.304;2023-08-20T09:07:28;99834.25;;;29.51;50.33
69855;BME280;57146;48.140;16.304;2023-08-20T09:09:58;99842.50;;;29.68;51.51
69855;BME280;57146;48.140;16.304;2023-08-20T09:12:26;99845.78;;;29.79;49.32
69855;BME280;57146;48.140;16.304;2023-08-20T09:14:53;99840.91;;;29.90;48.51
69855;BME280;57146;48.140;16.304;2023-08-20T09:17:20;99845.28;;;29.64;48.51
69855;BME280;57146;48.140;16.304;2023-08-20T09:19:47;99841.69;;;29.47;48.75
69855;BME280;57146;48.140;16.304;2023-08-20T09:22:15;99842.38;;;29.51;48.79
69855;BME280;57146;48.140;16.304;2023-08-20T09:24:45;99843.13;;;29.52;49.12
69855;BME280;57146;48.140;16.304;2023-08-20T09:27:14;99841.75;;;29.67;49.77
69855;BME280;57146;48.140;16.304;2023-08-20T09:29:48;99837.84;;;29.88;46.94
69855;BME280;57146;48.140;16.304;2023-08-20T09:32:18;99839.31;;;29.93;47.56
69855;BME280;57146;48.140;16.304;2023-08-20T09:34:47;99840.94;;;30.10;47.31
69855;BME280;57146;48.140;16.304;2023-08-20T09:37:16;99847.06;;;30.14;46.63
69855;BME280;57146;48.140;16.304;2023-08-20T09:39:43;99838.09;;;30.17;46.60
69855;BME280;57146;48.140;16.304;2023-08-20T09:42:12;99836.59;;;30.13;46.77
69855;BME280;57146;48.140;16.304;2023-08-20T09:44:44;99831.47;;;30.18;46.03
69855;BME280;57146;48.140;16.304;2023-08-20T09:47:16;99825.53;;;30.23;45.81
69855;BME280;57146;48.140;16.304;2023-08-20T09:49:47;99834.25;;;30.35;45.59
69855;BME280;57146;48.140;16.304;2023-08-20T09:52:40;99827.50;;;30.23;44.64
69855;BME280;57146;48.140;16.304;2023-08-20T09:55:16;99835.31;;;30.21;44.91
69855;BME280;57146;48.140;16.304;2023-08-20T09:57:44;99836.59;;;30.33;46.88
69855;BME280;57146;48.140;16.304;2023-08-20T10:00:13;99829.06;;;30.40;46.54
69855;BME280;57146;48.140;16.304;2023-08-20T10:02:42;99824.09;;;30.55;46.63
69855;BME280;57146;48.140;16.304;2023-08-20T10:05:10;99813.91;;;30.59;46.24
69855;BME280;57146;48.140;16.304;2023-08-20T10:07:39;99818.00;;;30.67;44.93
69855;BME280;57146;48.140;16.304;2023-08-20T10:10:07;99809.78;;;30.71;44.76
69855;BME280;57146;48.140;16.304;2023-08-20T10:12:36;99813.88;;;30.79;44.42
69855;BME280;57146;48.140;16.304;2023-08-20T10:15:05;99809.56;;;30.82;43.43
69855;BME280;57146;48.140;16.304;2023-08-20T10:17:34;99808.28;;;30.86;42.94
69855;BME280;57146;48.140;16.304;2023-08-20T10:20:03;99806.91;;;30.78;42.32
69855;BME280;57146;48.140;16.304;2023-08-20T10:25:05;99808.88;;;30.77;42.49
69855;BME280;57146;48.140;16.304;2023-08-20T10:27:35;99804.06;;;30.49;41.79
69855;BME280;57146;48.140;16.304;2023-08-20T10:30:08;99810.13;;;30.37;42.20
69855;BME280;57146;48.140;16.304;2023-08-20T10:32:51;99808.72;;;30.48;42.44
69855;BME280;57146;48.140;16.304;2023-08-20T10:35:25;99807.03;;;30.54;41.63
69855;BME280;57146;48.140;16.304;2023-08-20T10:38:05;99807.31;;;30.60;42.02
69855;BME280;57146;48.140;16.304;2023-08-20T10:40:57;99812.97;;;30.66;42.40
69855;BME280;57146;48.140;16.304;2023-08-20T10:43:29;99805.44;;;30.73;42.63
69855;BME280;57146;48.140;16.304;2023-08-20T10:46:07;99802.72;;;30.73;41.51
69855;BME280;57146;48.140;16.304;2023-08-20T10:48:39;99809.69;;;30.74;41.49
69855;BME280;57146;48.140;16.304;2023-08-20T10:51:09;99795.34;;;30.74;42.15
69855;BME280;57146;48.140;16.304;2023-08-20T10:53:36;99792.28;;;30.72;41.50
69855;BME280;57146;48.140;16.304;2023-08-20T10:56:16;99792.06;;;30.83;41.63
69855;BME280;57146;48.140;16.304;2023-08-20T10:59:30;99785.69;;;30.89;41.34
69855;BME280;57146;48.140;16.304;2023-08-20T11:01:58;99779.97;;;30.84;41.23
69855;BME280;57146;48.140;16.304;2023-08-20T11:04:30;99782.69;;;30.84;40.83
69855;BME280;57146;48.140;16.304;2023-08-20T11:06:58;99787.13;;;30.77;41.32
69855;BME280;57146;48.140;16.304;2023-08-20T11:09:27;99779.56;;;30.85;41.06
69855;BME280;57146;48.140;16.304;2023-08-20T11:11:55;99777.03;;;30.78;41.08
69855;BME280;57146;48.140;16.304;2023-08-20T11:14:26;99770.31;;;30.83;41.01
69855;BME280;57146;48.140;16.304;2023-08-20T11:16:53;99776.06;;;31.01;40.47
69855;BME280;57146;48.140;16.304;2023-08-20T11:19:23;99771.25;;;30.92;39.80
69855;BME280;57146;48.140;16.304;2023-08-20T11:21:51;99769.78;;;30.88;40.28
69855;BME280;57146;48.140;16.304;2023-08-20T11:24:20;99770.22;;;31.03;40.45
69855;BME280;57146;48.140;16.304;2023-08-20T11:26:48;99765.38;;;31.10;40.25
69855;BME280;57146;48.140;16.304;2023-08-20T11:29:18;99764.31;;;31.20;39.70
69855;BME280;57146;48.140;16.304;2023-08-20T11:31:45;99764.47;;;31.30;40.12
69855;BME280;57146;48.140;16.304;2023-08-20T11:34:14;99759.72;;;31.34;39.12
69855;BME280;57146;48.140;16.304;2023-08-20T11:36:47;99765.16;;;31.34;39.30
69855;BME280;57146;48.140;16.304;2023-08-20T11:39:13;99759.53;;;31.41;39.44
69855;BME280;57146;48.140;16.304;2023-08-20T11:41:41;99758.81;;;31.53;39.51
69855;BME280;57146;48.140;16.304;2023-08-20T11:44:09;99763.31;;;31.60;39.12
69855;BME280;57146;48.140;16.304;2023-08-20T11:46:43;99758.63;;;31.60;38.15
69855;BME280;57146;48.140;16.304;2023-08-20T11:49:14;99759.28;;;31.64;38.13
69855;BME280;57146;48.140;16.304;2023-08-20T11:51:45;99762.44;;;31.63;37.40
69855;BME280;57146;48.140;16.304;2023-08-20T11:54:16;99762.34;;;31.66;38.36
69855;BME280;57146;48.140;16.304;2023-08-20T11:56:47;99753.94;;;31.61;36.83
69855;BME280;57146;48.140;16.304;2023-08-20T11:59:39;99752.97;;;31.67;38.01
69855;BME280;57146;48.140;16.304;2023-08-20T12:02:10;99758.31;;;31.71;37.26
69855;BME280;57146;48.140;16.304;2023-08-20T12:04:37;99759.44;;;31.74;38.15
69855;BME280;57146;48.140;16.304;2023-08-20T12:07:09;99755.72;;;31.80;36.08
69855;BME280;57146;48.140;16.304;2023-08-20T12:09:36;99751.72;;;31.85;36.23
69855;BME280;57146;48.140;16.304;2023-08-20T12:12:06;99752.72;;;31.91;36.73
69855;BME280;57146;48.140;16.304;2023-08-20T12:14:34;99754.44;;;31.85;36.76
69855;BME280;57146;48.140;16.304;2023-08-20T12:17:01;99757.88;;;31.72;36.80
69855;BME280;57146;48.140;16.304;2023-08-20T12:19:29;99753.94;;;31.61;37.25
69855;BME280;57146;48.140;16.304;2023-08-20T12:21:56;99746.75;;;31.54;37.29
69855;BME280;57146;48.140;16.304;2023-08-20T12:24:25;99748.91;;;31.46;36.75
69855;BME280;57146;48.140;16.304;2023-08-20T12:27:17;99737.84;;;31.37;36.87
69855;BME280;57146;48.140;16.304;2023-08-20T12:29:47;99745.06;;;31.44;37.15
69855;BME280;57146;48.140;16.304;2023-08-20T12:32:14;99740.97;;;31.52;36.09
69855;BME280;57146;48.140;16.304;2023-08-20T12:34:41;99734.91;;;31.61;34.76
69855;BME280;57146;48.140;16.304;2023-08-20T12:37:08;99746.69;;;31.70;34.87
69855;BME280;57146;48.140;16.304;2023-08-20T12:39:37;99741.13;;;31.74;33.88
69855;BME280;57146;48.140;16.304;2023-08-20T12:42:04;99733.72;;;31.75;34.51
69855;BME280;57146;48.140;16.304;2023-08-20T12:44:31;99737.09;;;31.79;34.78
69855;BME280;57146;48.140;16.304;2023-08-20T12:46:59;99734.72;;;31.81;33.07
69855;BME280;57146;48.140;16.304;2023-08-20T12:49:25;99730.91;;;31.78;34.27
69855;BME280;57146;48.140;16.304;2023-08-20T12:51:52;99727.75;;;31.80;34.75
69855;BME280;57146;48.140;16.304;2023-08-20T12:54:19;99723.56;;;31.91;33.65
69855;BME280;57146;48.140;16.304;2023-08-20T12:56:47;99727.34;;;31.94;33.90
69855;BME280;57146;48.140;16.304;2023-08-20T12:59:14;99708.19;;;31.98;32.54
69855;BME280;57146;48.140;16.304;2023-08-20T13:01:41;99719.84;;;31.98;32.71
69855;BME280;57146;48.140;16.304;2023-08-20T13:04:09;99718.97;;;32.01;32.83
69855;BME280;57146;48.140;16.304;2023-08-20T13:06:37;99718.22;;;32.01;32.67
69855;BME280;57146;48.140;16.304;2023-08-20T13:09:04;99714.72;;;32.00;31.97
69855;BME280;57146;48.140;16.304;2023-08-20T13:11:32;99716.34;;;31.98;32.47
69855;BME280;57146;48.140;16.304;2023-08-20T13:14:00;99712.41;;;31.86;32.15